sensor_id;sensor_type;location;lat;lon;timestamp;pressure;altitude;pressure_sealevel;temperature;humidity
50250;BME280;36133;42.522;27.456;2023-03-16T00:01:17;100298.59;;;14.15;57.70
50250;BME280;36133;42.522;27.456;2023-03-16T00:03:43;100283.06;;;14.54;56.65
50250;BME280;36133;42.522;27.456;2023-03-16T00:06:09;100269.44;;;14.79;55.33
50250;BME280;36133;42.522;27.456;2023-03-16T00:08:35;100234.84;;;14.68;55.19
50250;BME280;36133;42.522;27.456;2023-03-16T00:11:01;100156.38;;;13.10;57.98
50250;BME280;36133;42.522;27.456;2023-03-16T00:13:26;100237.50;;;13.43;59.23
50250;BME280;36133;42.522;27.456;2023-03-16T00:15:55;100207.44;;;13.51;58.07
50250;BME280;36133;42.522;27.456;2023-03-16T00:18:23;100271.44;;;13.07;60.14
50250;BME280;36133;42.522;27.456;2023-03-16T00:20:57;100288.50;;;13.28;60.46
50250;BME280;36133;42.522;27.456;2023-03-16T00:23:25;100238.63;;;12.71;61.01
50250;BME280;36133;42.522;27.456;2023-03-16T00:25:58;100297.81;;;13.45;60.24
50250;BME280;36133;42.522;27.456;2023-03-16T00:28:26;100300.56;;;13.32;60.35
50250;BME280;36133;42.522;27.456;2023-03-16T00:30:52;100280.81;;;13.56;59.60
50250;BME280;36133;42.522;27.456;2023-03-16T00:33:23;100290.75;;;13.31;60.55
50250;BME280;36133;42.522;27.456;2023-03-16T00:35:49;100298.06;;;13.30;61.01
50250;BME280;36133;42.522;27.456;2023-03-16T00:38:18;100297.22;;;13.30;60.74
50250;BME280;36133;42.522;27.456;2023-03-16T00:40:45;100295.50;;;13.80;59.38
50250;BME280;36133;42.522;27.456;2023-03-16T00:43:11;100224.41;;;13.40;59.30
50250;BME280;36133;42.522;27.456;2023-03-16T00:45:37;100265.63;;;13.87;58.32
50250;BME280;36133;42.522;27.456;2023-03-16T00:48:03;100256.09;;;14.27;57.82
50250;BME280;36133;42.522;27.456;2023-03-16T00:50:28;100183.47;;;14.23;56.52
50250;BME280;36133;42.522;27.456;2023-03-16T00:52:54;100316.50;;;14.54;56.48
50250;BME280;36133;42.522;27.456;2023-03-16T00:55:20;100286.47;;;11.44;66.45
50250;BME280;36133;42.522;27.456;2023-03-16T00:57:45;100307.41;;;12.03;66.15
50250;BME280;36133;42.522;27.456;2023-03-16T01:00:12;100316.00;;;13.31;63.07
50250;BME280;36133;42.522;27.456;2023-03-16T01:02:41;100147.81;;;13.44;59.43
50250;BME280;36133;42.522;27.456;2023-03-16T01:05:07;100301.31;;;14.15;59.76
50250;BME280;36133;42.522;27.456;2023-03-16T01:07:33;100291.13;;;14.35;58.81
50250;BME280;36133;42.522;27.456;2023-03-16T01:10:01;100278.38;;;15.82;55.40
50250;BME280;36133;42.522;27.456;2023-03-16T01:12:27;100298.13;;;16.43;53.75
50250;BME280;36133;42.522;27.456;2023-03-16T01:14:52;100296.59;;;16.24;54.05
50250;BME280;36133;42.522;27.456;2023-03-16T01:17:19;100278.59;;;15.81;55.13
50250;BME280;36133;42.522;27.456;2023-03-16T01:19:47;100305.97;;;16.63;53.38
50250;BME280;36133;42.522;27.456;2023-03-16T01:22:12;100153.50;;;15.86;52.98
50250;BME280;36133;42.522;27.456;2023-03-16T01:24:40;100304.41;;;16.44;53.80
50250;BME280;36133;42.522;27.456;2023-03-16T01:27:06;100259.91;;;15.85;54.97
50250;BME280;36133;42.522;27.456;2023-03-16T01:29:32;100274.03;;;15.93;54.99
50250;BME280;36133;42.522;27.456;2023-03-16T01:31:58;100321.22;;;15.20;58.00
50250;BME280;36133;42.522;27.456;2023-03-16T01:34:24;100295.22;;;15.24;57.63
50250;BME280;36133;42.522;27.456;2023-03-16T01:36:50;100320.94;;;15.10;58.39
50250;BME280;36133;42.522;27.456;2023-03-16T01:39:16;100314.66;;;14.48;59.76
50250;BME280;36133;42.522;27.456;2023-03-16T01:41:42;100310.84;;;14.24;61.46
50250;BME280;36133;42.522;27.456;2023-03-16T01:44:17;100314.28;;;14.13;61.73
50250;BME280;36133;42.522;27.456;2023-03-16T01:46:44;100306.25;;;14.75;59.88
50250;BME280;36133;42.522;27.456;2023-03-16T01:49:17;100322.53;;;14.56;60.31
50250;BME280;36133;42.522;27.456;2023-03-16T01:52:09;100327.75;;;14.58;60.23
50250;BME280;36133;42.522;27.456;2023-03-16T01:54:49;100335.78;;;14.40;60.80
50250;BME280;36133;42.522;27.456;2023-03-16T01:57:19;100322.56;;;14.50;59.70
50250;BME280;36133;42.522;27.456;2023-03-16T02:02:29;100308.91;;;14.06;60.67
50250;BME280;36133;42.522;27.456;2023-03-16T02:05:07;100347.25;;;14.73;59.64
50250;BME280;36133;42.522;27.456;2023-03-16T02:07:39;100330.06;;;13.60;61.96
50250;BME280;36133;42.522;27.456;2023-03-16T02:10:08;100346.72;;;14.33;60.92
50250;BME280;36133;42.522;27.456;2023-03-16T02:12:35;100289.56;;;14.71;58.32
50250;BME280;36133;42.522;27.456;2023-03-16T02:15:00;100218.31;;;14.87;57.13
50250;BME280;36133;42.522;27.456;2023-03-16T02:17:28;100304.50;;;15.35;56.48
50250;BME280;36133;42.522;27.456;2023-03-16T02:20:42;100326.59;;;15.09;57.81
50250;BME280;36133;42.522;27.456;2023-03-16T02:23:09;100336.34;;;14.55;59.28
50250;BME280;36133;42.522;27.456;2023-03-16T02:28:15;100233.16;;;12.90;62.54
50250;BME280;36133;42.522;27.456;2023-03-16T02:30:45;100357.75;;;13.10;64.07
50250;BME280;36133;42.522;27.456;2023-03-16T02:33:12;100352.22;;;13.50;63.16
50250;BME280;36133;42.522;27.456;2023-03-16T02:35:38;100363.72;;;14.78;59.24
50250;BME280;36133;42.522;27.456;2023-03-16T02:38:04;100331.38;;;14.20;59.60
50250;BME280;36133;42.522;27.456;2023-03-16T02:40:32;100357.22;;;14.79;58.39
50250;BME280;36133;42.522;27.456;2023-03-16T02:43:01;100362.88;;;14.53;58.70
50250;BME280;36133;42.522;27.456;2023-03-16T02:45:42;100351.34;;;14.82;57.91
50250;BME280;36133;42.522;27.456;2023-03-16T02:48:13;100353.56;;;15.10;56.88
50250;BME280;36133;42.522;27.456;2023-03-16T02:50:45;100360.59;;;14.50;58.73
50250;BME280;36133;42.522;27.456;2023-03-16T02:53:12;100316.03;;;14.57;57.96
50250;BME280;36133;42.522;27.456;2023-03-16T02:55:38;100313.22;;;14.14;58.44
50250;BME280;36133;42.522;27.456;2023-03-16T02:58:04;100223.38;;;13.66;58.47
50250;BME280;36133;42.522;27.456;2023-03-16T03:00:29;100365.44;;;14.41;58.57
50250;BME280;36133;42.522;27.456;2023-03-16T03:02:55;100340.31;;;13.96;59.52
50250;BME280;36133;42.522;27.456;2023-03-16T03:05:20;100308.78;;;13.95;58.86
50250;BME280;36133;42.522;27.456;2023-03-16T03:07:46;100310.13;;;14.11;59.10
50250;BME280;36133;42.522;27.456;2023-03-16T03:10:11;100364.19;;;15.48;55.89
50250;BME280;36133;42.522;27.456;2023-03-16T03:12:37;100240.19;;;14.74;55.89
50250;BME280;36133;42.522;27.456;2023-03-16T03:15:03;100341.25;;;15.44;55.37
50250;BME280;36133;42.522;27.456;2023-03-16T03:17:28;100363.97;;;15.98;54.79
50250;BME280;36133;42.522;27.456;2023-03-16T03:19:58;100340.63;;;15.61;55.65
50250;BME280;36133;42.522;27.456;2023-03-16T03:22:25;100366.03;;;16.03;54.87
50250;BME280;36133;42.522;27.456;2023-03-16T03:24:52;100361.66;;;16.02;54.49
50250;BME280;36133;42.522;27.456;2023-03-16T03:27:18;100366.19;;;15.41;55.44
50250;BME280;36133;42.522;27.456;2023-03-16T03:29:44;100309.31;;;14.60;57.51
50250;BME280;36133;42.522;27.456;2023-03-16T03:32:09;100358.41;;;15.63;55.47
50250;BME280;36133;42.522;27.456;2023-03-16T03:34:35;100329.44;;;15.50;55.54
50250;BME280;36133;42.522;27.456;2023-03-16T03:37:01;100353.41;;;15.78;55.18
50250;BME280;36133;42.522;27.456;2023-03-16T03:39:26;100386.72;;;15.74;55.73
50250;BME280;36133;42.522;27.456;2023-03-16T03:41:52;100389.59;;;15.06;57.72
50250;BME280;36133;42.522;27.456;2023-03-16T03:44:20;100383.06;;;14.63;58.98
50250;BME280;36133;42.522;27.456;2023-03-16T03:46:46;100387.84;;;14.68;58.85
50250;BME280;36133;42.522;27.456;2023-03-16T03:49:11;100349.38;;;14.46;59.36
50250;BME280;36133;42.522;27.456;2023-03-16T03:51:37;100411.97;;;14.58;59.97
50250;BME280;36133;42.522;27.456;2023-03-16T03:54:03;100267.19;;;14.26;58.56
50250;BME280;36133;42.522;27.456;2023-03-16T03:56:28;100346.97;;;14.56;59.11
50250;BME280;36133;42.522;27.456;2023-03-16T03:58:53;100376.38;;;14.34;60.33
50250;BME280;36133;42.522;27.456;2023-03-16T04:01:19;100208.44;;;13.25;60.37
50250;BME280;36133;42.522;27.456;2023-03-16T04:03:45;100425.56;;;14.51;60.80
50250;BME280;36133;42.522;27.456;2023-03-16T04:06:10;100407.22;;;14.97;59.37
50250;BME280;36133;42.522;27.456;2023-03-16T04:08:36;100160.16;;;13.02;60.39
50250;BME280;36133;42.522;27.456;2023-03-16T04:11:01;100379.09;;;14.34;60.62
50250;BME280;36133;42.522;27.456;2023-03-16T04:13:27;100401.19;;;14.94;59.26
50250;BME280;36133;42.522;27.456;2023-03-16T04:15:57;100423.94;;;14.75;59.87
50250;BME280;36133;42.522;27.456;2023-03-16T04:18:23;100431.47;;;14.10;61.88
50250;BME280;36133;42.522;27.456;2023-03-16T04:20:48;100431.31;;;13.98;62.73
50250;BME280;36133;42.522;27.456;2023-03-16T04:23:14;100427.72;;;13.53;63.72
50250;BME280;36133;42.522;27.456;2023-03-16T04:25:41;100383.81;;;13.76;62.21
50250;BME280;36133;42.522;27.456;2023-03-16T04:28:07;100432.56;;;14.34;60.27
50250;BME280;36133;42.522;27.456;2023-03-16T04:30:32;100428.88;;;15.46;57.91
50250;BME280;36133;42.522;27.456;2023-03-16T04:32:59;100418.47;;;15.00;58.08
50250;BME280;36133;42.522;27.456;2023-03-16T04:35:25;100413.91;;;15.19;57.70
50250;BME280;36133;42.522;27.456;2023-03-16T04:37:50;100437.59;;;14.93;58.61
50250;BME280;36133;42.522;27.456;2023-03-16T04:40:16;100398.84;;;14.48;59.91
50250;BME280;36133;42.522;27.456;2023-03-16T04:42:45;100380.91;;;14.47;59.54
50250;BME280;36133;42.522;27.456;2023-03-16T04:45:11;100351.81;;;14.23;59.32
50250;BME280;36133;42.522;27.456;2023-03-16T04:47:38;100414.16;;;14.36;59.43
50250;BME280;36133;42.522;27.456;2023-03-16T04:50:04;100451.44;;;14.85;58.75
50250;BME280;36133;42.522;27.456;2023-03-16T04:52:31;100090.06;;;13.69;56.31
50250;BME280;36133;42.522;27.456;2023-03-16T04:54:56;100446.94;;;16.14;55.41
50250;BME280;36133;42.522;27.456;2023-03-16T04:57:22;100386.06;;;15.60;55.69
50250;BME280;36133;42.522;27.456;2023-03-16T04:59:48;100468.09;;;16.00;55.51
50250;BME280;36133;42.522;27.456;2023-03-16T05:02:13;100435.47;;;14.95;57.61
50250;BME280;36133;42.522;27.456;2023-03-16T05:04:39;100436.00;;;15.84;55.55
50250;BME280;36133;42.522;27.456;2023-03-16T05:07:05;100462.69;;;16.42;54.58
50250;BME280;36133;42.522;27.456;2023-03-16T05:09:30;100479.03;;;16.12;55.50
50250;BME280;36133;42.522;27.456;2023-03-16T05:11:57;100235.22;;;15.08;54.06
50250;BME280;36133;42.522;27.456;2023-03-16T05:14:22;100430.72;;;15.71;53.97
50250;BME280;36133;42.522;27.456;2023-03-16T05:16:48;100493.00;;;16.16;53.72
50250;BME280;36133;42.522;27.456;2023-03-16T05:19:13;100491.53;;;15.65;53.65
50250;BME280;36133;42.522;27.456;2023-03-16T05:21:39;100487.53;;;15.42;53.81
50250;BME280;36133;42.522;27.456;2023-03-16T05:24:05;100486.28;;;15.20;54.21
50250;BME280;36133;42.522;27.456;2023-03-16T05:26:31;100490.53;;;15.34;54.64
50250;BME280;36133;42.522;27.456;2023-03-16T05:28:56;100409.56;;;15.54;52.05
50250;BME280;36133;42.522;27.456;2023-03-16T05:31:22;100487.47;;;15.49;53.39
50250;BME280;36133;42.522;27.456;2023-03-16T05:33:51;100454.00;;;15.05;54.81
50250;BME280;36133;42.522;27.456;2023-03-16T05:36:17;100478.94;;;16.19;52.75
50250;BME280;36133;42.522;27.456;2023-03-16T05:38:42;100444.00;;;15.97;52.71
50250;BME280;36133;42.522;27.456;2023-03-16T05:41:08;100495.47;;;16.35;52.97
50250;BME280;36133;42.522;27.456;2023-03-16T05:43:33;100488.47;;;16.09;52.89
50250;BME280;36133;42.522;27.456;2023-03-16T05:45:59;100396.91;;;15.97;51.67
50250;BME280;36133;42.522;27.456;2023-03-16T05:48:24;100494.63;;;16.65;51.30
50250;BME280;36133;42.522;27.456;2023-03-16T05:50:51;100466.38;;;16.59;51.09
50250;BME280;36133;42.522;27.456;2023-03-16T05:53:17;100501.00;;;16.89;50.58
50250;BME280;36133;42.522;27.456;2023-03-16T05:55:42;100516.66;;;16.93;50.75
50250;BME280;36133;42.522;27.456;2023-03-16T05:58:08;100480.78;;;17.08;49.92
50250;BME280;36133;42.522;27.456;2023-03-16T06:00:34;100451.03;;;16.65;49.36
50250;BME280;36133;42.522;27.456;2023-03-16T06:03:00;100470.09;;;16.35;50.53
50250;BME280;36133;42.522;27.456;2023-03-16T06:05:25;100473.81;;;16.70;49.61
50250;BME280;36133;42.522;27.456;2023-03-16T06:07:53;100492.38;;;16.62;48.49
50250;BME280;36133;42.522;27.456;2023-03-16T06:10:19;100500.50;;;14.97;49.84
50250;BME280;36133;42.522;27.456;2023-03-16T06:12:44;100530.34;;;15.53;50.41
50250;BME280;36133;42.522;27.456;2023-03-16T06:15:11;100558.28;;;15.67;49.43
50250;BME280;36133;42.522;27.456;2023-03-16T06:17:37;100559.56;;;14.83;51.08
50250;BME280;36133;42.522;27.456;2023-03-16T06:20:04;100559.06;;;14.03;51.98
50250;BME280;36133;42.522;27.456;2023-03-16T06:22:40;100547.84;;;13.80;52.56
50250;BME280;36133;42.522;27.456;2023-03-16T06:25:07;100543.94;;;13.03;54.55
50250;BME280;36133;42.522;27.456;2023-03-16T06:27:34;100543.13;;;13.36;53.22
50250;BME280;36133;42.522;27.456;2023-03-16T06:29:59;100561.19;;;13.88;53.50
50250;BME280;36133;42.522;27.456;2023-03-16T06:32:25;100583.84;;;14.78;51.91
50250;BME280;36133;42.522;27.456;2023-03-16T06:34:51;100573.47;;;14.62;52.05
50250;BME280;36133;42.522;27.456;2023-03-16T06:37:16;100585.25;;;14.43;52.49
50250;BME280;36133;42.522;27.456;2023-03-16T06:39:42;100544.13;;;13.68;53.14
50250;BME280;36133;42.522;27.456;2023-03-16T06:42:09;100569.66;;;14.25;53.05
50250;BME280;36133;42.522;27.456;2023-03-16T06:44:35;100590.84;;;15.49;50.74
50250;BME280;36133;42.522;27.456;2023-03-16T06:47:00;100592.94;;;15.22;50.93
50250;BME280;36133;42.522;27.456;2023-03-16T06:49:26;100611.28;;;14.63;52.53
50250;BME280;36133;42.522;27.456;2023-03-16T06:51:51;100545.38;;;15.56;50.14
50250;BME280;36133;42.522;27.456;2023-03-16T06:54:17;100559.81;;;15.07;49.88
50250;BME280;36133;42.522;27.456;2023-03-16T06:56:42;100562.53;;;15.07;49.93
50250;BME280;36133;42.522;27.456;2023-03-16T06:59:08;100604.84;;;15.52;49.02
50250;BME280;36133;42.522;27.456;2023-03-16T07:01:33;100627.56;;;15.08;50.48
50250;BME280;36133;42.522;27.456;2023-03-16T07:03:59;100590.28;;;13.48;52.07
50250;BME280;36133;42.522;27.456;2023-03-16T07:06:24;100580.44;;;13.14;53.51
50250;BME280;36133;42.522;27.456;2023-03-16T07:08:50;100528.31;;;13.58;51.92
50250;BME280;36133;42.522;27.456;2023-03-16T07:11:16;100646.13;;;13.09;53.58
50250;BME280;36133;42.522;27.456;2023-03-16T07:13:42;100640.75;;;13.56;53.43
50250;BME280;36133;42.522;27.456;2023-03-16T07:16:08;100626.38;;;14.98;50.73
50250;BME280;36133;42.522;27.456;2023-03-16T07:18:34;100577.97;;;14.81;50.10
50250;BME280;36133;42.522;27.456;2023-03-16T07:21:02;100407.41;;;12.84;52.33
50250;BME280;36133;42.522;27.456;2023-03-16T07:23:28;100470.50;;;14.09;51.56
50250;BME280;36133;42.522;27.456;2023-03-16T07:25:53;100654.47;;;16.41;48.52
50250;BME280;36133;42.522;27.456;2023-03-16T07:28:19;100517.75;;;15.34;48.87
50250;BME280;36133;42.522;27.456;2023-03-16T07:30:46;100453.44;;;15.65;47.27
50250;BME280;36133;42.522;27.456;2023-03-16T07:33:13;100603.97;;;17.05;45.92
50250;BME280;36133;42.522;27.456;2023-03-16T07:35:39;100330.66;;;15.54;46.17
50250;BME280;36133;42.522;27.456;2023-03-16T07:38:05;100266.84;;;14.41;46.99
50250;BME280;36133;42.522;27.456;2023-03-16T07:40:31;100658.13;;;17.32;45.75
50250;BME280;36133;42.522;27.456;2023-03-16T07:42:58;100680.13;;;17.48;45.72
50250;BME280;36133;42.522;27.456;2023-03-16T07:45:24;100441.63;;;16.49;44.77
50250;BME280;36133;42.522;27.456;2023-03-16T07:47:50;100429.81;;;16.67;44.30
50250;BME280;36133;42.522;27.456;2023-03-16T07:50:15;100457.84;;;16.74;44.18
50250;BME280;36133;42.522;27.456;2023-03-16T07:52:43;100680.81;;;16.47;46.63
50250;BME280;36133;42.522;27.456;2023-03-16T07:55:11;100632.19;;;14.63;49.68
50250;BME280;36133;42.522;27.456;2023-03-16T07:57:37;100182.50;;;11.73;49.59
50250;BME280;36133;42.522;27.456;2023-03-16T08:00:04;100418.63;;;13.34;51.06
50250;BME280;36133;42.522;27.456;2023-03-16T08:02:31;100696.31;;;15.53;50.17
50250;BME280;36133;42.522;27.456;2023-03-16T08:04:57;100485.31;;;13.62;51.59
50250;BME280;36133;42.522;27.456;2023-03-16T08:07:24;100519.28;;;14.74;49.34
50250;BME280;36133;42.522;27.456;2023-03-16T08:09:50;100470.13;;;14.44;47.95
50250;BME280;36133;42.522;27.456;2023-03-16T08:12:16;100530.34;;;15.04;46.86
50250;BME280;36133;42.522;27.456;2023-03-16T08:14:42;100372.06;;;14.52;46.05
50250;BME280;36133;42.522;27.456;2023-03-16T08:17:09;100242.91;;;13.49;47.04
50250;BME280;36133;42.522;27.456;2023-03-16T08:19:36;100214.19;;;12.84;47.26
50250;BME280;36133;42.522;27.456;2023-03-16T08:22:03;100423.44;;;14.85;46.55
50250;BME280;36133;42.522;27.456;2023-03-16T08:24:30;100643.94;;;16.81;46.16
50250;BME280;36133;42.522;27.456;2023-03-16T08:26:57;100505.69;;;16.40;44.11
50250;BME280;36133;42.522;27.456;2023-03-16T08:29:24;100705.63;;;17.12;45.10
50250;BME280;36133;42.522;27.456;2023-03-16T08:32:12;100715.03;;;16.61;46.52
50250;BME280;36133;42.522;27.456;2023-03-16T08:34:37;100628.81;;;15.69;46.06
50250;BME280;36133;42.522;27.456;2023-03-16T08:37:04;100553.94;;;15.10;46.33
50250;BME280;36133;42.522;27.456;2023-03-16T08:39:31;100704.97;;;15.75;47.62
50250;BME280;36133;42.522;27.456;2023-03-16T08:41:57;100638.97;;;14.92;49.60
50250;BME280;36133;42.522;27.456;2023-03-16T08:44:23;100718.44;;;16.38;47.95
50250;BME280;36133;42.522;27.456;2023-03-16T08:46:50;100461.94;;;15.07;46.55
50250;BME280;36133;42.522;27.456;2023-03-16T08:49:16;100337.47;;;13.77;47.20
50250;BME280;36133;42.522;27.456;2023-03-16T08:51:45;100479.31;;;14.43;47.67
50250;BME280;36133;42.522;27.456;2023-03-16T08:54:11;100250.78;;;12.48;49.67
50250;BME280;36133;42.522;27.456;2023-03-16T08:56:36;100680.03;;;16.58;46.98
50250;BME280;36133;42.522;27.456;2023-03-16T08:59:02;100718.22;;;16.40;47.80
50250;BME280;36133;42.522;27.456;2023-03-16T09:01:27;100721.34;;;15.69;48.69
50250;BME280;36133;42.522;27.456;2023-03-16T09:03:53;100484.25;;;15.15;47.01
50250;BME280;36133;42.522;27.456;2023-03-16T09:06:19;100729.88;;;16.84;45.87
50250;BME280;36133;42.522;27.456;2023-03-16T09:08:46;100680.66;;;17.27;45.44
50250;BME280;36133;42.522;27.456;2023-03-16T09:11:14;100566.63;;;16.57;45.63
50250;BME280;36133;42.522;27.456;2023-03-16T09:13:41;100718.25;;;18.20;44.22
50250;BME280;36133;42.522;27.456;2023-03-16T09:16:08;100638.78;;;18.10;43.17
50250;BME280;36133;42.522;27.456;2023-03-16T09:18:34;100694.44;;;16.65;46.56
50250;BME280;36133;42.522;27.456;2023-03-16T09:21:03;100727.63;;;18.12;45.18
50250;BME280;36133;42.522;27.456;2023-03-16T09:23:29;100693.69;;;17.25;45.56
50250;BME280;36133;42.522;27.456;2023-03-16T09:26:00;100654.31;;;16.91;44.72
50250;BME280;36133;42.522;27.456;2023-03-16T09:28:27;100511.06;;;16.77;44.44
50250;BME280;36133;42.522;27.456;2023-03-16T09:30:53;100725.38;;;18.33;43.62
50250;BME280;36133;42.522;27.456;2023-03-16T09:33:20;100708.41;;;18.94;42.67
50250;BME280;36133;42.522;27.456;2023-03-16T09:35:46;100718.50;;;17.23;45.72
50250;BME280;36133;42.522;27.456;2023-03-16T09:38:12;100752.97;;;16.20;47.12
50250;BME280;36133;42.522;27.456;2023-03-16T09:40:40;100552.16;;;15.22;47.03
50250;BME280;36133;42.522;27.456;2023-03-16T09:46:13;100753.63;;;16.58;47.09
50250;BME280;36133;42.522;27.456;2023-03-16T09:48:41;100739.53;;;16.86;46.83
50250;BME280;36133;42.522;27.456;2023-03-16T09:52:04;100760.00;;;16.52;48.44
50250;BME280;36133;42.522;27.456;2023-03-16T09:54:01;100665.72;;;15.58;49.53
50250;BME280;36133;42.522;27.456;2023-03-16T09:56:35;100762.09;;;16.75;48.00
50250;BME280;36133;42.522;27.456;2023-03-16T09:59:12;100710.78;;;16.65;48.45
50250;BME280;36133;42.522;27.456;2023-03-16T10:04:39;100772.50;;;14.18;54.78
50250;BME280;36133;42.522;27.456;2023-03-16T10:07:35;100775.00;;;14.19;55.31
50250;BME280;36133;42.522;27.456;2023-03-16T10:10:25;100630.94;;;13.68;53.49
50250;BME280;36133;42.522;27.456;2023-03-16T10:12:59;100624.50;;;13.69;54.14
50250;BME280;36133;42.522;27.456;2023-03-16T10:15:28;100783.16;;;14.46;53.31
50250;BME280;36133;42.522;27.456;2023-03-16T10:18:19;100766.84;;;14.46;53.86
50250;BME280;36133;42.522;27.456;2023-03-16T10:20:47;100769.56;;;14.19;55.16
50250;BME280;36133;42.522;27.456;2023-03-16T10:23:23;100724.78;;;14.68;54.72
50250;BME280;36133;42.522;27.456;2023-03-16T10:25:51;100667.03;;;14.01;54.22
50250;BME280;36133;42.522;27.456;2023-03-16T10:28:26;100774.47;;;13.43;57.27
50250;BME280;36133;42.522;27.456;2023-03-16T10:30:55;100692.75;;;12.91;58.07
50250;BME280;36133;42.522;27.456;2023-03-16T10:33:26;100776.19;;;13.57;57.02
50250;BME280;36133;42.522;27.456;2023-03-16T10:36:01;100696.44;;;14.44;54.14
50250;BME280;36133;42.522;27.456;2023-03-16T10:43:43;100685.91;;;13.02;57.58
50250;BME280;36133;42.522;27.456;2023-03-16T10:46:10;100780.38;;;13.79;58.04
50250;BME280;36133;42.522;27.456;2023-03-16T10:48:37;100671.00;;;14.05;55.22
50250;BME280;36133;42.522;27.456;2023-03-16T10:51:10;100669.34;;;13.85;55.52
50250;BME280;36133;42.522;27.456;2023-03-16T10:53:39;100643.69;;;13.34;56.56
50250;BME280;36133;42.522;27.456;2023-03-16T10:56:12;100570.97;;;14.09;54.25
50250;BME280;36133;42.522;27.456;2023-03-16T10:58:42;100677.88;;;14.21;54.28
50250;BME280;36133;42.522;27.456;2023-03-16T11:01:17;100769.34;;;14.21;57.11
50250;BME280;36133;42.522;27.456;2023-03-16T11:03:49;100389.84;;;13.13;53.91
50250;BME280;36133;42.522;27.456;2023-03-16T11:06:28;100787.31;;;14.42;55.38
50250;BME280;36133;42.522;27.456;2023-03-16T11:09:09;100779.13;;;14.68;55.22
50250;BME280;36133;42.522;27.456;2023-03-16T11:11:37;100793.16;;;14.52;54.94
50250;BME280;36133;42.522;27.456;2023-03-16T11:14:11;100792.88;;;13.06;58.92
50250;BME280;36133;42.522;27.456;2023-03-16T11:16:45;100770.56;;;13.65;56.99
50250;BME280;36133;42.522;27.456;2023-03-16T11:19:28;100752.78;;;13.43;57.54
50250;BME280;36133;42.522;27.456;2023-03-16T11:21:59;100793.56;;;13.83;56.22
50250;BME280;36133;42.522;27.456;2023-03-16T11:24:51;100753.91;;;14.08;55.21
50250;BME280;36133;42.522;27.456;2023-03-16T11:27:32;100741.91;;;13.30;57.53
50250;BME280;36133;42.522;27.456;2023-03-16T11:30:03;100787.44;;;13.54;57.70
50250;BME280;36133;42.522;27.456;2023-03-16T11:32:39;100506.78;;;11.62;57.44
50250;BME280;36133;42.522;27.456;2023-03-16T11:38:20;100624.31;;;11.38;60.61
50250;BME280;36133;42.522;27.456;2023-03-16T11:40:57;100591.63;;;11.82;60.01
50250;BME280;36133;42.522;27.456;2023-03-16T11:46:07;100617.00;;;12.70;57.17
50250;BME280;36133;42.522;27.456;2023-03-16T11:56:38;100771.81;;;13.02;58.91
50250;BME280;36133;42.522;27.456;2023-03-16T12:18:18;100790.53;;;11.99;60.05
50250;BME280;36133;42.522;27.456;2023-03-16T12:20:49;100838.41;;;12.27;59.45
50250;BME280;36133;42.522;27.456;2023-03-16T12:23:20;100809.81;;;11.96;59.83
50250;BME280;36133;42.522;27.456;2023-03-16T12:25:50;100787.78;;;12.49;58.88
50250;BME280;36133;42.522;27.456;2023-03-16T12:28:28;100616.50;;;11.50;58.18
50250;BME280;36133;42.522;27.456;2023-03-16T12:41:58;100865.31;;;12.56;58.71
50250;BME280;36133;42.522;27.456;2023-03-16T12:47:47;100855.47;;;12.49;59.20
50250;BME280;36133;42.522;27.456;2023-03-16T12:50:15;100626.56;;;11.13;59.18
50250;BME280;36133;42.522;27.456;2023-03-16T12:52:50;100671.56;;;11.42;59.18
50250;BME280;36133;42.522;27.456;2023-03-16T12:55:42;100776.16;;;11.63;60.46
50250;BME280;36133;42.522;27.456;2023-03-16T12:58:09;100853.38;;;12.79;58.48
50250;BME280;36133;42.522;27.456;2023-03-16T13:00:40;100847.66;;;13.30;57.73
50250;BME280;36133;42.522;27.456;2023-03-16T13:03:15;100771.78;;;12.26;58.69
50250;BME280;36133;42.522;27.456;2023-03-16T13:05:56;100886.88;;;12.71;59.26
50250;BME280;36133;42.522;27.456;2023-03-16T13:08:24;100888.22;;;13.16;58.12
50250;BME280;36133;42.522;27.456;2023-03-16T13:11:08;100807.09;;;12.18;59.52
50250;BME280;36133;42.522;27.456;2023-03-16T13:13:34;100857.84;;;13.21;57.84
50250;BME280;36133;42.522;27.456;2023-03-16T13:16:08;100775.03;;;12.15;58.50
50250;BME280;36133;42.522;27.456;2023-03-16T13:18:40;100484.59;;;10.40;58.70
50250;BME280;36133;42.522;27.456;2023-03-16T13:21:38;100899.44;;;11.72;61.67
50250;BME280;36133;42.522;27.456;2023-03-16T13:24:35;100812.19;;;11.27;62.25
50250;BME280;36133;42.522;27.456;2023-03-16T13:27:22;100880.75;;;11.56;61.84
50250;BME280;36133;42.522;27.456;2023-03-16T13:29:59;100658.59;;;10.14;61.80
50250;BME280;36133;42.522;27.456;2023-03-16T13:32:29;100914.66;;;12.30;60.88
50250;BME280;36133;42.522;27.456;2023-03-16T13:34:59;100688.94;;;9.64;63.19
50250;BME280;36133;42.522;27.456;2023-03-16T13:37:29;100760.47;;;10.79;62.27
50250;BME280;36133;42.522;27.456;2023-03-16T13:39:57;100931.13;;;11.93;61.02
50250;BME280;36133;42.522;27.456;2023-03-16T13:42:28;100932.38;;;10.87;63.95
50250;BME280;36133;42.522;27.456;2023-03-16T13:44:55;100814.09;;;10.82;62.52
50250;BME280;36133;42.522;27.456;2023-03-16T13:47:25;100941.38;;;11.97;61.52
50250;BME280;36133;42.522;27.456;2023-03-16T13:49:58;100754.16;;;10.20;62.89
50250;BME280;36133;42.522;27.456;2023-03-16T13:52:32;100867.31;;;11.48;61.94